sensor_id;sensor_type;location;lat;lon;timestamp;P1;durP1;ratioP1;P2;durP2;ratioP2
15996;SDS011;8103;51.340;12.326;2023-06-22T00:00:01;10.32;;;8.68;;
15996;SDS011;8103;51.340;12.326;2023-06-22T00:02:34;10.48;;;8.82;;
15996;SDS011;8103;51.340;12.326;2023-06-22T00:05:01;9.05;;;8.18;;
15996;SDS011;8103;51.340;12.326;2023-06-22T00:07:28;8.95;;;8.10;;
15996;SDS011;8103;51.340;12.326;2023-06-22T00:09:55;9.50;;;8.60;;
15996;SDS011;8103;51.340;12.326;2023-06-22T00:12:21;9.95;;;8.95;;
15996;SDS011;8103;51.340;12.326;2023-06-22T00:14:48;9.18;;;8.35;;
15996;SDS011;8103;51.340;12.326;2023-06-22T00:17:15;9.48;;;8.55;;
15996;SDS011;8103;51.340;12.326;2023-06-22T00:19:42;10.48;;;9.52;;
15996;SDS011;8103;51.340;12.326;2023-06-22T00:22:09;10.02;;;8.60;;
15996;SDS011;8103;51.340;12.326;2023-06-22T00:24:36;9.00;;;8.20;;
15996;SDS011;8103;51.340;12.326;2023-06-22T00:27:03;10.60;;;9.50;;
15996;SDS011;8103;51.340;12.326;2023-06-22T00:29:31;9.80;;;8.82;;
15996;SDS011;8103;51.340;12.326;2023-06-22T00:31:58;9.38;;;8.48;;
15996;SDS011;8103;51.340;12.326;2023-06-22T00:34:25;9.05;;;8.20;;
15996;SDS011;8103;51.340;12.326;2023-06-22T00:36:52;9.32;;;8.43;;
15996;SDS011;8103;51.340;12.326;2023-06-22T00:39:19;10.65;;;9.55;;
15996;SDS011;8103;51.340;12.326;2023-06-22T00:41:45;10.60;;;9.60;;
15996;SDS011;8103;51.340;12.326;2023-06-22T00:44:12;10.35;;;8.65;;
15996;SDS011;8103;51.340;12.326;2023-06-22T00:46:39;10.00;;;9.00;;
15996;SDS011;8103;51.340;12.326;2023-06-22T00:49:06;8.77;;;7.88;;
15996;SDS011;8103;51.340;12.326;2023-06-22T00:51:33;9.25;;;8.45;;
15996;SDS011;8103;51.340;12.326;2023-06-22T00:54:02;8.85;;;8.05;;
15996;SDS011;8103;51.340;12.326;2023-06-22T00:56:31;9.45;;;8.55;;
15996;SDS011;8103;51.340;12.326;2023-06-22T00:58:58;9.73;;;8.75;;
15996;SDS011;8103;51.340;12.326;2023-06-22T01:01:29;9.43;;;8.52;;
15996;SDS011;8103;51.340;12.326;2023-06-22T01:03:56;9.23;;;8.35;;
15996;SDS011;8103;51.340;12.326;2023-06-22T01:06:26;7.80;;;7.07;;
15996;SDS011;8103;51.340;12.326;2023-06-22T01:09:19;8.95;;;8.05;;
15996;SDS011;8103;51.340;12.326;2023-06-22T01:11:58;12.88;;;11.57;;
15996;SDS011;8103;51.340;12.326;2023-06-22T01:14:38;11.18;;;9.38;;
15996;SDS011;8103;51.340;12.326;2023-06-22T01:17:23;14.57;;;9.68;;
15996;SDS011;8103;51.340;12.326;2023-06-22T01:19:55;11.45;;;10.35;;
15996;SDS011;8103;51.340;12.326;2023-06-22T01:22:26;10.20;;;9.00;;
15996;SDS011;8103;51.340;12.326;2023-06-22T01:27:56;8.73;;;7.82;;
15996;SDS011;8103;51.340;12.326;2023-06-22T01:30:42;10.43;;;8.80;;
15996;SDS011;8103;51.340;12.326;2023-06-22T01:33:12;9.15;;;8.25;;
15996;SDS011;8103;51.340;12.326;2023-06-22T01:35:41;9.88;;;8.98;;
15996;SDS011;8103;51.340;12.326;2023-06-22T01:38:10;10.82;;;9.80;;
15996;SDS011;8103;51.340;12.326;2023-06-22T01:40:38;12.30;;;8.93;;
15996;SDS011;8103;51.340;12.326;2023-06-22T01:43:05;10.63;;;9.63;;
15996;SDS011;8103;51.340;12.326;2023-06-22T01:45:32;10.15;;;8.45;;
15996;SDS011;8103;51.340;12.326;2023-06-22T01:47:59;10.00;;;9.00;;
15996;SDS011;8103;51.340;12.326;2023-06-22T01:50:27;9.43;;;8.63;;
15996;SDS011;8103;51.340;12.326;2023-06-22T01:52:55;11.50;;;9.23;;
15996;SDS011;8103;51.340;12.326;2023-06-22T01:55:22;10.68;;;9.68;;
15996;SDS011;8103;51.340;12.326;2023-06-22T01:57:49;9.80;;;8.90;;
15996;SDS011;8103;51.340;12.326;2023-06-22T02:00:18;10.88;;;9.80;;
15996;SDS011;8103;51.340;12.326;2023-06-22T02:02:52;9.60;;;8.80;;
15996;SDS011;8103;51.340;12.326;2023-06-22T02:05:26;9.55;;;8.65;;
15996;SDS011;8103;51.340;12.326;2023-06-22T02:08:09;9.93;;;8.93;;
15996;SDS011;8103;51.340;12.326;2023-06-22T02:10:47;12.20;;;11.00;;
15996;SDS011;8103;51.340;12.326;2023-06-22T02:13:18;10.40;;;9.40;;
15996;SDS011;8103;51.340;12.326;2023-06-22T02:15:46;11.70;;;9.60;;
15996;SDS011;8103;51.340;12.326;2023-06-22T02:18:14;10.25;;;9.07;;
15996;SDS011;8103;51.340;12.326;2023-06-22T02:20:41;10.73;;;9.57;;
15996;SDS011;8103;51.340;12.326;2023-06-22T02:23:08;10.93;;;9.85;;
15996;SDS011;8103;51.340;12.326;2023-06-22T02:25:35;11.68;;;10.30;;
15996;SDS011;8103;51.340;12.326;2023-06-22T02:28:03;12.18;;;11.07;;
15996;SDS011;8103;51.340;12.326;2023-06-22T02:30:30;11.48;;;10.35;;
15996;SDS011;8103;51.340;12.326;2023-06-22T02:32:57;10.73;;;9.73;;
15996;SDS011;8103;51.340;12.326;2023-06-22T02:35:28;10.23;;;9.23;;
15996;SDS011;8103;51.340;12.326;2023-06-22T02:38:04;11.23;;;9.77;;
15996;SDS011;8103;51.340;12.326;2023-06-22T02:40:32;11.15;;;10.10;;
15996;SDS011;8103;51.340;12.326;2023-06-22T02:42:58;10.80;;;9.80;;
15996;SDS011;8103;51.340;12.326;2023-06-22T02:45:28;11.63;;;10.60;;
15996;SDS011;8103;51.340;12.326;2023-06-22T02:47:55;10.23;;;9.27;;
15996;SDS011;8103;51.340;12.326;2023-06-22T02:50:22;11.23;;;10.23;;
15996;SDS011;8103;51.340;12.326;2023-06-22T02:52:50;12.48;;;11.27;;
15996;SDS011;8103;51.340;12.326;2023-06-22T02:55:17;10.35;;;9.35;;
15996;SDS011;8103;51.340;12.326;2023-06-22T02:57:43;10.63;;;9.50;;
15996;SDS011;8103;51.340;12.326;2023-06-22T03:00:12;11.43;;;10.32;;
15996;SDS011;8103;51.340;12.326;2023-06-22T03:02:44;11.38;;;9.82;;
15996;SDS011;8103;51.340;12.326;2023-06-22T03:05:14;9.60;;;8.75;;
15996;SDS011;8103;51.340;12.326;2023-06-22T03:07:44;10.73;;;9.82;;
15996;SDS011;8103;51.340;12.326;2023-06-22T03:10:12;9.90;;;9.00;;
15996;SDS011;8103;51.340;12.326;2023-06-22T03:12:43;10.45;;;9.45;;
15996;SDS011;8103;51.340;12.326;2023-06-22T03:15:10;11.23;;;10.23;;
15996;SDS011;8103;51.340;12.326;2023-06-22T03:17:39;10.07;;;9.18;;
15996;SDS011;8103;51.340;12.326;2023-06-22T03:20:08;9.77;;;8.88;;
15996;SDS011;8103;51.340;12.326;2023-06-22T03:22:38;11.10;;;9.98;;
15996;SDS011;8103;51.340;12.326;2023-06-22T03:25:07;13.18;;;11.80;;
15996;SDS011;8103;51.340;12.326;2023-06-22T03:27:42;13.52;;;11.48;;
15996;SDS011;8103;51.340;12.326;2023-06-22T03:30:14;10.98;;;10.02;;
15996;SDS011;8103;51.340;12.326;2023-06-22T03:32:41;10.63;;;9.73;;
15996;SDS011;8103;51.340;12.326;2023-06-22T03:35:09;11.30;;;10.13;;
15996;SDS011;8103;51.340;12.326;2023-06-22T03:37:39;9.82;;;8.88;;
15996;SDS011;8103;51.340;12.326;2023-06-22T03:40:06;11.70;;;10.60;;
15996;SDS011;8103;51.340;12.326;2023-06-22T03:42:34;9.55;;;8.65;;
15996;SDS011;8103;51.340;12.326;2023-06-22T03:45:04;10.70;;;9.60;;
15996;SDS011;8103;51.340;12.326;2023-06-22T03:47:32;12.82;;;11.52;;
15996;SDS011;8103;51.340;12.326;2023-06-22T03:50:00;11.25;;;9.93;;
15996;SDS011;8103;51.340;12.326;2023-06-22T03:52:29;10.48;;;9.40;;
15996;SDS011;8103;51.340;12.326;2023-06-22T03:54:56;10.82;;;9.73;;
15996;SDS011;8103;51.340;12.326;2023-06-22T03:57:23;10.25;;;9.32;;
15996;SDS011;8103;51.340;12.326;2023-06-22T03:59:50;9.43;;;8.52;;
15996;SDS011;8103;51.340;12.326;2023-06-22T04:02:17;12.07;;;9.45;;
15996;SDS011;8103;51.340;12.326;2023-06-22T04:04:44;11.25;;;10.13;;
15996;SDS011;8103;51.340;12.326;2023-06-22T04:07:11;9.82;;;8.93;;
15996;SDS011;8103;51.340;12.326;2023-06-22T04:09:37;10.27;;;9.30;;
15996;SDS011;8103;51.340;12.326;2023-06-22T04:12:04;10.65;;;9.55;;
15996;SDS011;8103;51.340;12.326;2023-06-22T04:14:32;11.63;;;10.52;;
15996;SDS011;8103;51.340;12.326;2023-06-22T04:16:59;13.73;;;12.30;;
15996;SDS011;8103;51.340;12.326;2023-06-22T04:19:25;14.82;;;10.88;;
15996;SDS011;8103;51.340;12.326;2023-06-22T04:21:52;14.18;;;12.77;;
15996;SDS011;8103;51.340;12.326;2023-06-22T04:24:19;13.85;;;11.73;;
15996;SDS011;8103;51.340;12.326;2023-06-22T04:26:46;12.82;;;11.57;;
15996;SDS011;8103;51.340;12.326;2023-06-22T04:29:13;16.63;;;12.30;;
15996;SDS011;8103;51.340;12.326;2023-06-22T04:31:40;12.98;;;11.70;;
15996;SDS011;8103;51.340;12.326;2023-06-22T04:34:07;13.02;;;11.82;;
15996;SDS011;8103;51.340;12.326;2023-06-22T04:39:04;12.98;;;11.52;;
15996;SDS011;8103;51.340;12.326;2023-06-22T04:41:37;14.60;;;12.30;;
15996;SDS011;8103;51.340;12.326;2023-06-22T04:44:09;14.13;;;12.63;;
15996;SDS011;8103;51.340;12.326;2023-06-22T04:46:38;14.45;;;12.43;;
15996;SDS011;8103;51.340;12.326;2023-06-22T04:53:05;12.95;;;11.70;;
15996;SDS011;8103;51.340;12.326;2023-06-22T04:55:33;13.35;;;11.88;;
15996;SDS011;8103;51.340;12.326;2023-06-22T04:58:00;13.05;;;11.45;;
15996;SDS011;8103;51.340;12.326;2023-06-22T05:00:31;14.80;;;10.95;;
15996;SDS011;8103;51.340;12.326;2023-06-22T05:02:58;15.50;;;13.95;;
15996;SDS011;8103;51.340;12.326;2023-06-22T05:05:36;13.38;;;11.55;;
15996;SDS011;8103;51.340;12.326;2023-06-22T05:08:03;13.55;;;12.15;;
15996;SDS011;8103;51.340;12.326;2023-06-22T05:10:33;13.82;;;12.38;;
15996;SDS011;8103;51.340;12.326;2023-06-22T05:13:00;13.32;;;12.10;;
15996;SDS011;8103;51.340;12.326;2023-06-22T05:15:26;14.30;;;12.95;;
15996;SDS011;8103;51.340;12.326;2023-06-22T05:17:57;15.32;;;12.52;;
15996;SDS011;8103;51.340;12.326;2023-06-22T05:20:24;13.88;;;12.48;;
15996;SDS011;8103;51.340;12.326;2023-06-22T05:22:51;12.32;;;11.00;;
15996;SDS011;8103;51.340;12.326;2023-06-22T05:25:18;16.00;;;12.32;;
15996;SDS011;8103;51.340;12.326;2023-06-22T05:27:45;12.98;;;11.73;;
15996;SDS011;8103;51.340;12.326;2023-06-22T05:30:12;11.98;;;10.80;;
15996;SDS011;8103;51.340;12.326;2023-06-22T05:32:39;15.23;;;13.50;;
15996;SDS011;8103;51.340;12.326;2023-06-22T05:35:06;12.93;;;10.98;;
15996;SDS011;8103;51.340;12.326;2023-06-22T05:37:33;14.18;;;11.75;;
15996;SDS011;8103;51.340;12.326;2023-06-22T05:40:01;13.10;;;11.48;;
15996;SDS011;8103;51.340;12.326;2023-06-22T05:42:28;12.27;;;10.75;;
15996;SDS011;8103;51.340;12.326;2023-06-22T05:44:55;11.30;;;10.20;;
15996;SDS011;8103;51.340;12.326;2023-06-22T05:47:22;12.70;;;11.50;;
15996;SDS011;8103;51.340;12.326;2023-06-22T05:49:49;14.57;;;12.38;;
15996;SDS011;8103;51.340;12.326;2023-06-22T05:52:16;12.70;;;11.32;;
15996;SDS011;8103;51.340;12.326;2023-06-22T05:54:43;11.35;;;10.18;;
15996;SDS011;8103;51.340;12.326;2023-06-22T05:57:10;13.57;;;11.20;;
15996;SDS011;8103;51.340;12.326;2023-06-22T05:59:37;12.20;;;10.88;;
15996;SDS011;8103;51.340;12.326;2023-06-22T06:02:04;10.43;;;9.02;;
15996;SDS011;8103;51.340;12.326;2023-06-22T06:04:32;11.30;;;10.02;;
15996;SDS011;8103;51.340;12.326;2023-06-22T06:06:59;12.65;;;10.82;;
15996;SDS011;8103;51.340;12.326;2023-06-22T06:09:26;16.23;;;11.18;;
15996;SDS011;8103;51.340;12.326;2023-06-22T06:11:53;13.52;;;9.68;;
15996;SDS011;8103;51.340;12.326;2023-06-22T06:14:20;10.38;;;9.38;;
15996;SDS011;8103;51.340;12.326;2023-06-22T06:16:50;10.20;;;8.77;;
15996;SDS011;8103;51.340;12.326;2023-06-22T06:19:16;11.27;;;9.57;;
15996;SDS011;8103;51.340;12.326;2023-06-22T06:21:43;12.90;;;9.55;;
15996;SDS011;8103;51.340;12.326;2023-06-22T06:24:11;10.27;;;8.63;;
15996;SDS011;8103;51.340;12.326;2023-06-22T06:26:38;11.63;;;9.82;;
15996;SDS011;8103;51.340;12.326;2023-06-22T06:29:06;11.30;;;9.27;;
15996;SDS011;8103;51.340;12.326;2023-06-22T06:31:33;9.70;;;8.80;;
15996;SDS011;8103;51.340;12.326;2023-06-22T06:34:00;14.13;;;9.75;;
15996;SDS011;8103;51.340;12.326;2023-06-22T06:36:27;9.40;;;8.55;;
15996;SDS011;8103;51.340;12.326;2023-06-22T06:38:53;9.07;;;8.18;;
15996;SDS011;8103;51.340;12.326;2023-06-22T06:41:20;10.43;;;8.70;;
15996;SDS011;8103;51.340;12.326;2023-06-22T06:43:47;8.95;;;8.05;;
15996;SDS011;8103;51.340;12.326;2023-06-22T06:46:14;10.55;;;9.43;;
15996;SDS011;8103;51.340;12.326;2023-06-22T06:48:41;9.77;;;8.80;;
15996;SDS011;8103;51.340;12.326;2023-06-22T06:51:08;9.48;;;8.43;;
15996;SDS011;8103;51.340;12.326;2023-06-22T06:53:36;9.98;;;8.68;;
15996;SDS011;8103;51.340;12.326;2023-06-22T06:56:04;8.85;;;8.05;;
15996;SDS011;8103;51.340;12.326;2023-06-22T07:02:38;9.27;;;7.97;;
15996;SDS011;8103;51.340;12.326;2023-06-22T07:05:07;8.77;;;7.97;;
15996;SDS011;8103;51.340;12.326;2023-06-22T07:07:36;8.27;;;7.57;;
15996;SDS011;8103;51.340;12.326;2023-06-22T07:10:04;8.70;;;7.90;;
15996;SDS011;8103;51.340;12.326;2023-06-22T07:12:32;8.80;;;7.57;;
15996;SDS011;8103;51.340;12.326;2023-06-22T07:15:03;9.02;;;8.23;;
15996;SDS011;8103;51.340;12.326;2023-06-22T07:17:34;8.90;;;7.70;;
15996;SDS011;8103;51.340;12.326;2023-06-22T07:20:02;7.68;;;6.97;;
15996;SDS011;8103;51.340;12.326;2023-06-22T07:22:36;8.48;;;7.22;;
15996;SDS011;8103;51.340;12.326;2023-06-22T07:25:13;9.95;;;8.80;;
15996;SDS011;8103;51.340;12.326;2023-06-22T07:28:00;7.72;;;7.05;;
15996;SDS011;8103;51.340;12.326;2023-06-22T07:30:30;8.85;;;7.97;;
15996;SDS011;8103;51.340;12.326;2023-06-22T07:32:59;10.60;;;8.38;;
15996;SDS011;8103;51.340;12.326;2023-06-22T07:35:30;8.68;;;7.78;;
15996;SDS011;8103;51.340;12.326;2023-06-22T07:37:57;8.40;;;7.60;;
15996;SDS011;8103;51.340;12.326;2023-06-22T07:40:28;10.10;;;7.32;;
15996;SDS011;8103;51.340;12.326;2023-06-22T07:42:55;7.45;;;6.75;;
15996;SDS011;8103;51.340;12.326;2023-06-22T07:45:22;8.50;;;7.60;;
15996;SDS011;8103;51.340;12.326;2023-06-22T07:47:49;8.90;;;6.53;;
15996;SDS011;8103;51.340;12.326;2023-06-22T07:50:16;8.10;;;7.32;;
15996;SDS011;8103;51.340;12.326;2023-06-22T07:52:43;8.60;;;7.75;;
15996;SDS011;8103;51.340;12.326;2023-06-22T07:55:09;7.43;;;6.78;;
15996;SDS011;8103;51.340;12.326;2023-06-22T07:57:36;8.25;;;7.45;;
15996;SDS011;8103;51.340;12.326;2023-06-22T08:04:10;8.77;;;7.20;;
15996;SDS011;8103;51.340;12.326;2023-06-22T08:06:37;8.27;;;7.47;;
15996;SDS011;8103;51.340;12.326;2023-06-22T08:09:03;11.68;;;7.03;;
15996;SDS011;8103;51.340;12.326;2023-06-22T08:11:30;7.72;;;7.05;;
15996;SDS011;8103;51.340;12.326;2023-06-22T08:13:57;10.88;;;7.50;;
15996;SDS011;8103;51.340;12.326;2023-06-22T08:16:24;7.25;;;6.72;;
15996;SDS011;8103;51.340;12.326;2023-06-22T08:18:52;7.53;;;6.82;;
15996;SDS011;8103;51.340;12.326;2023-06-22T08:21:19;7.15;;;6.45;;
15996;SDS011;8103;51.340;12.326;2023-06-22T08:23:46;10.32;;;7.43;;
15996;SDS011;8103;51.340;12.326;2023-06-22T08:26:13;8.00;;;7.30;;
15996;SDS011;8103;51.340;12.326;2023-06-22T08:28:41;9.75;;;8.63;;
15996;SDS011;8103;51.340;12.326;2023-06-22T08:31:08;8.40;;;6.97;;
15996;SDS011;8103;51.340;12.326;2023-06-22T08:33:38;7.93;;;7.13;;
15996;SDS011;8103;51.340;12.326;2023-06-22T08:36:13;8.32;;;7.63;;
15996;SDS011;8103;51.340;12.326;2023-06-22T08:38:40;7.45;;;6.68;;
15996;SDS011;8103;51.340;12.326;2023-06-22T08:41:07;8.77;;;7.88;;
15996;SDS011;8103;51.340;12.326;2023-06-22T08:43:34;8.40;;;7.70;;
15996;SDS011;8103;51.340;12.326;2023-06-22T08:46:01;7.85;;;7.15;;
15996;SDS011;8103;51.340;12.326;2023-06-22T08:48:28;8.98;;;8.18;;
15996;SDS011;8103;51.340;12.326;2023-06-22T08:50:55;13.02;;;8.45;;
15996;SDS011;8103;51.340;12.326;2023-06-22T08:53:22;11.27;;;7.20;;
15996;SDS011;8103;51.340;12.326;2023-06-22T08:55:49;8.30;;;7.50;;
15996;SDS011;8103;51.340;12.326;2023-06-22T08:58:17;9.05;;;7.25;;
15996;SDS011;8103;51.340;12.326;2023-06-22T09:00:44;8.70;;;7.82;;
15996;SDS011;8103;51.340;12.326;2023-06-22T09:03:11;10.35;;;8.57;;
15996;SDS011;8103;51.340;12.326;2023-06-22T09:05:38;7.97;;;7.18;;
15996;SDS011;8103;51.340;12.326;2023-06-22T09:08:05;7.43;;;6.82;;
15996;SDS011;8103;51.340;12.326;2023-06-22T09:10:32;7.13;;;6.53;;
15996;SDS011;8103;51.340;12.326;2023-06-22T09:12:59;7.38;;;6.68;;
15996;SDS011;8103;51.340;12.326;2023-06-22T09:15:26;8.95;;;6.90;;
15996;SDS011;8103;51.340;12.326;2023-06-22T09:17:53;7.13;;;6.40;;
15996;SDS011;8103;51.340;12.326;2023-06-22T09:20:20;6.30;;;5.78;;
15996;SDS011;8103;51.340;12.326;2023-06-22T09:22:49;6.72;;;6.10;;
15996;SDS011;8103;51.340;12.326;2023-06-22T09:25:16;5.47;;;4.90;;
15996;SDS011;8103;51.340;12.326;2023-06-22T09:27:43;7.05;;;6.45;;
15996;SDS011;8103;51.340;12.326;2023-06-22T09:30:10;6.32;;;5.72;;
15996;SDS011;8103;51.340;12.326;2023-06-22T09:32:37;7.63;;;5.20;;
15996;SDS011;8103;51.340;12.326;2023-06-22T09:35:04;6.30;;;5.70;;
15996;SDS011;8103;51.340;12.326;2023-06-22T09:37:33;6.50;;;5.90;;
15996;SDS011;8103;51.340;12.326;2023-06-22T09:39:59;6.68;;;5.97;;
15996;SDS011;8103;51.340;12.326;2023-06-22T09:42:26;5.75;;;5.25;;
15996;SDS011;8103;51.340;12.326;2023-06-22T09:44:53;5.97;;;5.40;;
15996;SDS011;8103;51.340;12.326;2023-06-22T09:47:20;8.52;;;5.25;;
15996;SDS011;8103;51.340;12.326;2023-06-22T09:49:47;7.90;;;5.32;;
15996;SDS011;8103;51.340;12.326;2023-06-22T09:52:15;5.88;;;5.38;;
15996;SDS011;8103;51.340;12.326;2023-06-22T09:54:42;5.45;;;4.95;;
15996;SDS011;8103;51.340;12.326;2023-06-22T09:57:09;6.15;;;4.88;;
15996;SDS011;8103;51.340;12.326;2023-06-22T09:59:36;5.75;;;5.25;;
15996;SDS011;8103;51.340;12.326;2023-06-22T10:02:06;5.20;;;4.78;;
15996;SDS011;8103;51.340;12.326;2023-06-22T10:04:34;6.07;;;5.57;;
15996;SDS011;8103;51.340;12.326;2023-06-22T10:07:02;5.72;;;5.07;;
15996;SDS011;8103;51.340;12.326;2023-06-22T10:09:29;6.53;;;5.70;;
15996;SDS011;8103;51.340;12.326;2023-06-22T10:11:57;5.95;;;5.45;;
15996;SDS011;8103;51.340;12.326;2023-06-22T10:14:24;5.45;;;4.97;;
15996;SDS011;8103;51.340;12.326;2023-06-22T10:16:51;5.90;;;5.03;;
15996;SDS011;8103;51.340;12.326;2023-06-22T10:19:19;5.82;;;5.32;;
15996;SDS011;8103;51.340;12.326;2023-06-22T10:21:46;6.88;;;4.97;;
15996;SDS011;8103;51.340;12.326;2023-06-22T10:24:13;8.95;;;5.10;;
15996;SDS011;8103;51.340;12.326;2023-06-22T10:26:40;11.27;;;5.90;;
15996;SDS011;8103;51.340;12.326;2023-06-22T10:29:06;5.70;;;5.20;;
15996;SDS011;8103;51.340;12.326;2023-06-22T10:31:41;5.68;;;4.50;;
15996;SDS011;8103;51.340;12.326;2023-06-22T10:34:09;6.88;;;5.20;;
15996;SDS011;8103;51.340;12.326;2023-06-22T10:36:35;5.53;;;4.97;;
15996;SDS011;8103;51.340;12.326;2023-06-22T10:39:10;5.53;;;5.00;;
15996;SDS011;8103;51.340;12.326;2023-06-22T10:41:37;5.60;;;4.97;;
15996;SDS011;8103;51.340;12.326;2023-06-22T10:44:07;5.95;;;5.15;;
15996;SDS011;8103;51.340;12.326;2023-06-22T10:46:34;5.35;;;4.82;;
15996;SDS011;8103;51.340;12.326;2023-06-22T10:49:04;5.30;;;4.80;;
15996;SDS011;8103;51.340;12.326;2023-06-22T10:51:43;4.97;;;4.57;;
15996;SDS011;8103;51.340;12.326;2023-06-22T10:54:12;5.22;;;4.82;;
15996;SDS011;8103;51.340;12.326;2023-06-22T10:56:40;5.25;;;4.78;;
15996;SDS011;8103;51.340;12.326;2023-06-22T10:59:10;5.20;;;4.80;;
15996;SDS011;8103;51.340;12.326;2023-06-22T11:01:37;5.50;;;5.10;;
15996;SDS011;8103;51.340;12.326;2023-06-22T11:04:04;5.20;;;4.82;;
15996;SDS011;8103;51.340;12.326;2023-06-22T11:06:32;5.25;;;4.85;;
15996;SDS011;8103;51.340;12.326;2023-06-22T11:08:59;4.93;;;4.53;;
15996;SDS011;8103;51.340;12.326;2023-06-22T11:15:48;4.22;;;3.92;;
15996;SDS011;8103;51.340;12.326;2023-06-22T11:22:15;4.40;;;4.10;;
15996;SDS011;8103;51.340;12.326;2023-06-22T11:24:42;4.38;;;4.05;;
15996;SDS011;8103;51.340;12.326;2023-06-22T11:27:09;4.78;;;4.28;;
15996;SDS011;8103;51.340;12.326;2023-06-22T11:29:36;5.65;;;5.15;;
15996;SDS011;8103;51.340;12.326;2023-06-22T11:32:06;5.75;;;5.35;;
15996;SDS011;8103;51.340;12.326;2023-06-22T11:34:34;5.40;;;4.65;;
15996;SDS011;8103;51.340;12.326;2023-06-22T11:37:03;6.13;;;5.53;;
15996;SDS011;8103;51.340;12.326;2023-06-22T11:39:30;5.82;;;5.43;;
15996;SDS011;8103;51.340;12.326;2023-06-22T11:42:04;5.90;;;4.80;;
15996;SDS011;8103;51.340;12.326;2023-06-22T11:44:31;4.90;;;4.60;;
15996;SDS011;8103;51.340;12.326;2023-06-22T11:46:58;5.13;;;4.72;;
15996;SDS011;8103;51.340;12.326;2023-06-22T11:49:27;5.07;;;4.68;;
15996;SDS011;8103;51.340;12.326;2023-06-22T11:51:56;4.90;;;4.50;;
15996;SDS011;8103;51.340;12.326;2023-06-22T11:54:23;5.25;;;4.75;;
15996;SDS011;8103;51.340;12.326;2023-06-22T11:56:49;5.18;;;4.78;;
15996;SDS011;8103;51.340;12.326;2023-06-22T11:59:16;5.40;;;4.90;;
15996;SDS011;8103;51.340;12.326;2023-06-22T12:01:45;5.70;;;5.20;;
15996;SDS011;8103;51.340;12.326;2023-06-22T12:04:12;5.40;;;5.00;;
15996;SDS011;8103;51.340;12.326;2023-06-22T12:06:40;5.85;;;5.38;;
15996;SDS011;8103;51.340;12.326;2023-06-22T12:09:09;6.40;;;5.75;;
15996;SDS011;8103;51.340;12.326;2023-06-22T12:11:36;6.45;;;5.90;;
15996;SDS011;8103;51.340;12.326;2023-06-22T12:14:03;5.53;;;5.10;;
15996;SDS011;8103;51.340;12.326;2023-06-22T12:16:30;5.03;;;4.63;;
15996;SDS011;8103;51.340;12.326;2023-06-22T12:18:57;6.10;;;5.60;;
15996;SDS011;8103;51.340;12.326;2023-06-22T12:21:24;5.97;;;5.50;;
15996;SDS011;8103;51.340;12.326;2023-06-22T12:23:51;7.35;;;5.82;;
15996;SDS011;8103;51.340;12.326;2023-06-22T12:26:18;5.10;;;4.60;;
15996;SDS011;8103;51.340;12.326;2023-06-22T12:28:44;5.32;;;4.82;;
15996;SDS011;8103;51.340;12.326;2023-06-22T12:31:11;5.80;;;5.20;;
15996;SDS011;8103;51.340;12.326;2023-06-22T12:33:39;5.70;;;5.30;;
15996;SDS011;8103;51.340;12.326;2023-06-22T12:36:06;6.45;;;5.13;;
15996;SDS011;8103;51.340;12.326;2023-06-22T12:38:32;5.35;;;4.80;;
15996;SDS011;8103;51.340;12.326;2023-06-22T12:41:00;6.47;;;5.85;;
15996;SDS011;8103;51.340;12.326;2023-06-22T12:43:28;6.18;;;4.82;;
15996;SDS011;8103;51.340;12.326;2023-06-22T12:45:55;4.70;;;4.35;;
15996;SDS011;8103;51.340;12.326;2023-06-22T12:48:25;5.80;;;5.28;;
15996;SDS011;8103;51.340;12.326;2023-06-22T12:50:54;5.32;;;4.82;;
15996;SDS011;8103;51.340;12.326;2023-06-22T12:53:23;6.38;;;5.05;;
15996;SDS011;8103;51.340;12.326;2023-06-22T12:55:53;4.78;;;4.45;;
15996;SDS011;8103;51.340;12.326;2023-06-22T12:58:20;4.88;;;4.57;;
15996;SDS011;8103;51.340;12.326;2023-06-22T13:00:48;5.07;;;4.63;;
15996;SDS011;8103;51.340;12.326;2023-06-22T13:03:15;6.07;;;5.32;;
15996;SDS011;8103;51.340;12.326;2023-06-22T13:05:43;5.53;;;5.03;;
15996;SDS011;8103;51.340;12.326;2023-06-22T13:08:10;7.60;;;5.18;;
15996;SDS011;8103;51.340;12.326;2023-06-22T13:10:38;6.03;;;5.47;;
15996;SDS011;8103;51.340;12.326;2023-06-22T13:13:05;6.45;;;5.90;;
15996;SDS011;8103;51.340;12.326;2023-06-22T13:15:32;6.20;;;5.50;;
15996;SDS011;8103;51.340;12.326;2023-06-22T13:18:00;6.32;;;5.72;;
15996;SDS011;8103;51.340;12.326;2023-06-22T13:20:28;6.18;;;5.45;;
15996;SDS011;8103;51.340;12.326;2023-06-22T13:22:56;5.88;;;5.43;;
15996;SDS011;8103;51.340;12.326;2023-06-22T13:25:24;5.70;;;5.20;;
15996;SDS011;8103;51.340;12.326;2023-06-22T13:27:53;5.47;;;4.97;;
15996;SDS011;8103;51.340;12.326;2023-06-22T13:30:20;5.63;;;5.13;;
15996;SDS011;8103;51.340;12.326;2023-06-22T13:32:47;5.50;;;5.03;;
15996;SDS011;8103;51.340;12.326;2023-06-22T13:35:14;8.10;;;5.28;;
15996;SDS011;8103;51.340;12.326;2023-06-22T13:37:41;5.32;;;4.85;;
15996;SDS011;8103;51.340;12.326;2023-06-22T13:40:08;5.80;;;5.30;;
15996;SDS011;8103;51.340;12.326;2023-06-22T13:42:37;5.72;;;5.13;;
15996;SDS011;8103;51.340;12.326;2023-06-22T13:45:04;5.53;;;5.03;;
15996;SDS011;8103;51.340;12.326;2023-06-22T13:47:33;5.22;;;4.72;;
15996;SDS011;8103;51.340;12.326;2023-06-22T13:50:01;6.60;;;5.75;;
15996;SDS011;8103;51.340;12.326;2023-06-22T13:52:28;6.07;;;5.53;;
15996;SDS011;8103;51.340;12.326;2023-06-22T13:54:55;6.22;;;5.72;;
15996;SDS011;8103;51.340;12.326;2023-06-22T14:01:28;5.60;;;5.20;;
15996;SDS011;8103;51.340;12.326;2023-06-22T14:03:55;5.28;;;4.88;;
15996;SDS011;8103;51.340;12.326;2023-06-22T14:06:22;10.02;;;5.43;;
15996;SDS011;8103;51.340;12.326;2023-06-22T14:08:49;6.28;;;5.15;;
15996;SDS011;8103;51.340;12.326;2023-06-22T14:11:17;5.90;;;5.45;;
15996;SDS011;8103;51.340;12.326;2023-06-22T14:13:44;5.93;;;5.53;;
15996;SDS011;8103;51.340;12.326;2023-06-22T14:16:11;7.93;;;5.72;;
15996;SDS011;8103;51.340;12.326;2023-06-22T14:18:38;5.35;;;4.95;;
15996;SDS011;8103;51.340;12.326;2023-06-22T14:21:04;5.57;;;5.15;;
15996;SDS011;8103;51.340;12.326;2023-06-22T14:23:31;18.90;;;7.63;;
15996;SDS011;8103;51.340;12.326;2023-06-22T14:25:58;5.68;;;5.28;;
15996;SDS011;8103;51.340;12.326;2023-06-22T14:28:25;6.40;;;5.38;;
15996;SDS011;8103;51.340;12.326;2023-06-22T14:30:54;5.95;;;5.35;;
15996;SDS011;8103;51.340;12.326;2023-06-22T14:33:22;5.78;;;5.20;;
15996;SDS011;8103;51.340;12.326;2023-06-22T14:35:50;6.95;;;6.30;;
15996;SDS011;8103;51.340;12.326;2023-06-22T14:38:17;6.00;;;5.60;;
15996;SDS011;8103;51.340;12.326;2023-06-22T14:40:45;5.82;;;5.32;;
15996;SDS011;8103;51.340;12.326;2023-06-22T14:43:31;7.72;;;7.00;;
15996;SDS011;8103;51.340;12.326;2023-06-22T14:45:58;6.63;;;6.00;;
15996;SDS011;8103;51.340;12.326;2023-06-22T14:48:25;5.97;;;5.47;;
15996;SDS011;8103;51.340;12.326;2023-06-22T14:50:53;7.22;;;6.53;;
15996;SDS011;8103;51.340;12.326;2023-06-22T14:53:20;5.78;;;5.28;;
15996;SDS011;8103;51.340;12.326;2023-06-22T14:55:47;6.15;;;5.65;;
15996;SDS011;8103;51.340;12.326;2023-06-22T14:58:14;6.32;;;5.72;;
15996;SDS011;8103;51.340;12.326;2023-06-22T15:04:40;7.03;;;6.45;;
15996;SDS011;8103;51.340;12.326;2023-06-22T15:07:07;6.78;;;6.25;;
15996;SDS011;8103;51.340;12.326;2023-06-22T15:09:35;8.07;;;7.03;;
15996;SDS011;8103;51.340;12.326;2023-06-22T15:12:06;7.20;;;6.60;;
15996;SDS011;8103;51.340;12.326;2023-06-22T15:14:38;8.52;;;6.47;;
15996;SDS011;8103;51.340;12.326;2023-06-22T15:17:13;7.93;;;6.35;;
15996;SDS011;8103;51.340;12.326;2023-06-22T15:19:41;8.27;;;7.40;;